Time;durP1;ratioP1;P1;durP2;ratioP2;P2;SDS_P1;SDS_P2;PMS_P1;PMS_P2;Temp;Humidity;BMP_temperature;BMP_pressure;BME280_temperature;BME280_humidity;BME280_pressure;Samples;Min_cycle;Max_cycle;Signal;HPM_P1;HPM_P2
2023/02/21 02:14:58;;;;;;;6.30;4.80;;;;;;;-0.56;100.00;98329.41;105796;1260;68277;-57
2023/02/21 02:17:54;;;;;;;6.50;4.80;;;;;;;-0.55;100.00;98317.29;105396;1254;74738;-54
2023/02/21 02:20:55;;;;;;;7.20;5.40;;;;;;;-0.54;100.00;98307.80;105539;1257;61320;-56
2023/02/21 02:23:39;;;;;;;6.50;4.60;;;;;;;-0.54;100.00;98293.02;105842;1253;61792;-56
2023/02/21 02:26:37;;;;;;;5.40;3.80;;;;;;;-0.54;100.00;98282.12;105685;1254;75213;-56
2023/02/21 02:29:17;;;;;;;5.00;4.00;;;;;;;-0.53;100.00;98273.04;105639;1254;68381;-55
2023/02/21 02:32:21;;;;;;;5.00;3.70;;;;;;;-0.52;100.00;98265.02;105610;1264;74195;-55
2023/02/21 02:35:36;;;;;;;5.30;3.80;;;;;;;-0.51;100.00;98250.77;105727;1254;62809;-58
2023/02/21 02:38:34;;;;;;;6.30;4.40;;;;;;;-0.48;100.00;98233.66;105430;1260;61266;-59
2023/02/21 02:41:04;;;;;;;6.70;4.10;;;;;;;-0.48;100.00;98232.64;105834;1254;74988;-57
2023/02/21 02:43:41;;;;;;;4.90;3.30;;;;;;;-0.48;100.00;98222.02;105544;1254;69126;-55
2023/02/21 02:46:33;;;;;;;6.50;4.00;;;;;;;-0.46;100.00;98215.32;105485;1262;74150;-56
2023/02/21 02:49:13;;;;;;;4.90;3.50;;;;;;;-0.43;100.00;98205.63;105620;1254;61794;-55
2023/02/21 02:51:42;;;;;;;4.60;3.30;;;;;;;-0.40;100.00;98194.67;105623;1258;61291;-57
2023/02/21 02:54:11;;;;;;;5.70;3.00;;;;;;;-0.36;100.00;98186.21;105602;1254;75132;-54
2023/02/21 02:56:42;;;;;;;4.10;2.80;;;;;;;-0.32;100.00;98178.34;105621;1254;67780;-55
2023/02/21 02:59:20;;;;;;;4.70;2.90;;;;;;;-0.29;100.00;98170.09;105660;1259;74008;-57
2023/02/21 03:02:21;;;;;;;4.40;3.30;;;;;;;-0.25;100.00;98168.36;105400;1253;62759;-60
2023/02/21 03:05:15;;;;;;;4.40;2.70;;;;;;;-0.21;100.00;98161.44;105700;1258;61871;-55
2023/02/21 03:07:46;;;;;;;3.30;2.00;;;;;;;-0.17;100.00;98151.95;105437;1260;75615;-56
2023/02/21 03:11:00;;;;;;;5.50;2.60;;;;;;;-0.14;100.00;98144.61;105601;1257;68744;-55
2023/02/21 03:13:47;;;;;;;4.10;2.40;;;;;;;-0.10;100.00;98128.30;105061;1265;74820;-55
2023/02/21 03:16:23;;;;;;;4.30;2.60;;;;;;;-0.06;100.00;98125.08;105293;1265;61645;-57
2023/02/21 03:19:11;;;;;;;3.70;2.10;;;;;;;-0.03;100.00;98116.73;105510;1260;61195;-57
2023/02/21 03:21:49;;;;;;;3.10;2.10;;;;;;;0.00;100.00;98102.80;105698;1259;76303;-55
2023/02/21 03:24:18;;;;;;;4.00;2.10;;;;;;;0.05;100.00;98094.25;105709;1260;68063;-56
2023/02/21 03:26:48;;;;;;;2.90;2.00;;;;;;;0.08;100.00;98085.23;105589;1262;74214;-54
2023/02/21 03:29:43;;;;;;;3.50;2.00;;;;;;;0.11;100.00;98068.92;105495;1253;63657;-58
2023/02/21 03:34:49;;;;;;;2.80;1.70;;;;;;;0.20;100.00;98053.46;105490;1263;75519;-55
2023/02/21 03:37:35;;;;;;;3.10;1.90;;;;;;;0.22;100.00;98038.36;105957;1254;68666;-57
2023/02/21 03:40:15;;;;;;;3.50;1.70;;;;;;;0.25;100.00;98024.86;105659;1260;74080;-55
2023/02/21 03:42:47;;;;;;;2.60;1.40;;;;;;;0.27;100.00;98016.31;105780;1260;61714;-55
2023/02/21 03:45:17;;;;;;;2.60;1.40;;;;;;;0.28;100.00;98012.96;105674;1259;61339;-56
2023/02/21 03:47:52;;;;;;;2.20;1.30;;;;;;;0.28;100.00;98000.62;105535;1255;76132;-55
2023/02/21 03:50:22;;;;;;;2.70;1.50;;;;;;;0.30;100.00;97998.85;105729;1259;68692;-55
2023/02/21 03:52:51;;;;;;;2.40;1.10;;;;;;;0.32;100.00;97983.92;105894;1259;74513;-57
2023/02/21 03:55:20;;;;;;;2.90;1.60;;;;;;;0.36;100.00;97982.98;105663;1258;61248;-56
2023/02/21 03:57:48;;;;;;;3.30;2.00;;;;;;;0.39;100.00;97979.19;105756;1260;61890;-55
2023/02/21 04:00:18;;;;;;;4.30;1.80;;;;;;;0.42;100.00;97977.55;105735;1256;76154;-54
2023/02/21 04:02:49;;;;;;;3.90;2.00;;;;;;;0.43;100.00;97972.11;105852;1260;67659;-58
2023/02/21 04:05:29;;;;;;;3.60;1.80;;;;;;;0.45;100.00;97962.44;105747;1258;74495;-55
2023/02/21 04:07:58;;;;;;;3.20;1.50;;;;;;;0.47;100.00;97958.14;105718;1255;61751;-56
2023/02/21 04:10:29;;;;;;;2.80;1.60;;;;;;;0.46;100.00;97953.14;106071;1259;61839;-57
2023/02/21 04:13:01;;;;;;;3.30;1.50;;;;;;;0.47;100.00;97940.00;105561;1259;75360;-56
2023/02/21 04:15:37;;;;;;;3.40;1.30;;;;;;;0.49;100.00;97936.39;105606;1258;68129;-57
2023/02/21 04:18:06;;;;;;;2.90;1.60;;;;;;;0.51;100.00;97924.76;105901;1254;74035;-59
2023/02/21 04:20:37;;;;;;;4.30;1.50;;;;;;;0.53;100.00;97915.48;105434;1260;62819;-57
2023/02/21 04:23:08;;;;;;;3.50;1.60;;;;;;;0.54;100.00;97907.84;105662;1259;61796;-56
2023/02/21 04:25:37;;;;;;;2.60;1.30;;;;;;;0.55;100.00;97904.45;105702;1259;76028;-56
2023/02/21 04:28:11;;;;;;;3.00;1.60;;;;;;;0.55;100.00;97889.71;105571;1258;67526;-56
2023/02/21 04:30:41;;;;;;;2.60;1.50;;;;;;;0.57;100.00;97881.11;105681;1257;72988;-56
2023/02/21 04:33:10;;;;;;;3.80;1.90;;;;;;;0.59;100.00;97878.48;105663;1259;62630;-57
2023/02/21 04:35:38;;;;;;;2.80;2.00;;;;;;;0.60;100.00;97875.14;105924;1260;61802;-58
2023/02/21 04:38:14;;;;;;;3.60;2.10;;;;;;;0.61;100.00;97875.64;105700;1259;74338;-54
2023/02/21 04:40:42;;;;;;;4.20;2.20;;;;;;;0.64;100.00;97880.20;105711;1259;68636;-56
2023/02/21 04:43:11;;;;;;;4.60;2.30;;;;;;;0.65;100.00;97870.36;105577;1256;73094;-55
2023/02/21 04:45:41;;;;;;;3.90;1.80;;;;;;;0.65;100.00;97850.96;105697;1261;62042;-56
2023/02/21 04:48:13;;;;;;;4.00;2.30;;;;;;;0.67;100.00;97853.34;105550;1259;61176;-55
2023/02/21 04:50:42;;;;;;;3.10;2.00;;;;;;;0.67;100.00;97857.17;105854;1254;75143;-56
2023/02/21 04:53:10;;;;;;;3.60;2.20;;;;;;;0.68;100.00;97858.13;105801;1257;68414;-55
2023/02/21 04:55:39;;;;;;;4.60;2.40;;;;;;;0.69;100.00;97852.55;105910;1257;74447;-57
2023/02/21 04:58:09;;;;;;;3.90;2.20;;;;;;;0.71;100.00;97851.46;105802;1258;61452;-57
2023/02/21 05:00:37;;;;;;;4.10;2.50;;;;;;;0.74;100.00;97856.59;105725;1257;61362;-57
2023/02/21 05:03:06;;;;;;;4.60;2.80;;;;;;;0.75;100.00;97852.92;105758;1254;75605;-58
2023/02/21 05:05:34;;;;;;;3.80;2.50;;;;;;;0.75;100.00;97847.98;105935;1260;69745;-57
2023/02/21 05:08:03;;;;;;;4.10;2.50;;;;;;;0.76;100.00;97841.67;105860;1254;73020;-56
2023/02/21 05:10:32;;;;;;;4.90;2.40;;;;;;;0.78;100.00;97830.20;105851;1258;62391;-55
2023/02/21 05:13:13;;;;;;;4.80;2.60;;;;;;;0.79;100.00;97823.23;106075;1257;1025608;-61
2023/02/21 05:15:44;;;;;;;4.40;2.60;;;;;;;0.80;100.00;97828.09;105646;1259;76234;-58
2023/02/21 05:18:13;;;;;;;4.40;3.00;;;;;;;0.82;100.00;97824.91;105784;1259;66667;-58
2023/02/21 05:20:41;;;;;;;4.80;2.90;;;;;;;0.83;100.00;97828.17;105892;1257;74340;-59
2023/02/21 05:23:10;;;;;;;4.20;2.70;;;;;;;0.85;100.00;97832.77;106275;1256;61421;-58
2023/02/21 05:25:41;;;;;;;4.60;2.40;;;;;;;0.87;100.00;97834.56;105940;1266;61406;-57
2023/02/21 05:28:10;;;;;;;3.80;2.40;;;;;;;0.87;100.00;97836.94;105686;1257;76267;-58
2023/02/21 05:30:38;;;;;;;5.80;2.80;;;;;;;0.89;100.00;97835.02;105833;1257;68461;-57
2023/02/21 05:33:07;;;;;;;4.80;2.90;;;;;;;0.91;100.00;97832.07;105936;1254;74248;-60
2023/02/21 05:35:36;;;;;;;3.40;2.40;;;;;;;0.92;100.00;97827.13;106004;1254;62156;-59
2023/02/21 05:38:05;;;;;;;5.20;3.20;;;;;;;0.95;100.00;97825.39;105757;1258;61652;-60
2023/02/21 05:40:34;;;;;;;4.70;2.90;;;;;;;0.99;100.00;97831.06;105848;1254;75820;-58
2023/02/21 05:43:09;;;;;;;4.10;2.80;;;;;;;1.06;100.00;97822.45;105810;1255;69060;-60
2023/02/21 05:45:38;;;;;;;4.50;2.70;;;;;;;1.09;100.00;97822.33;105503;1257;73905;-60
2023/02/21 05:48:06;;;;;;;5.00;3.20;;;;;;;1.12;100.00;97821.20;105875;1254;62743;-61
2023/02/21 05:50:35;;;;;;;4.80;3.10;;;;;;;1.14;100.00;97819.06;105891;1256;61225;-61
2023/02/21 05:53:04;;;;;;;4.30;3.10;;;;;;;1.15;100.00;97820.65;105758;1254;75495;-61
2023/02/21 05:55:35;;;;;;;5.00;3.60;;;;;;;1.17;100.00;97813.02;105809;1254;68418;-61
2023/02/21 05:58:04;;;;;;;5.80;3.80;;;;;;;1.20;100.00;97812.95;105613;1257;74227;-61
2023/02/21 06:00:33;;;;;;;6.20;4.00;;;;;;;1.22;100.00;97815.20;105599;1254;62640;-61
2023/02/21 06:03:03;;;;;;;6.30;4.20;;;;;;;1.25;100.00;97814.54;105858;1257;61163;-61
2023/02/21 06:05:32;;;;;;;6.10;4.00;;;;;;;1.26;100.00;97813.25;105998;1254;75077;-64
2023/02/21 06:08:01;;;;;;;5.20;3.50;;;;;;;1.27;100.00;97808.80;105718;1260;69100;-60
2023/02/21 06:10:31;;;;;;;7.00;4.20;;;;;;;1.28;100.00;97812.04;105742;1255;73597;-60
2023/02/21 06:12:59;;;;;;;6.10;3.90;;;;;;;1.28;100.00;97812.95;105900;1254;61647;-60
2023/02/21 06:15:30;;;;;;;6.10;3.80;;;;;;;1.27;100.00;97809.31;105572;1260;62279;-60
2023/02/21 06:18:00;;;;;;;7.00;4.70;;;;;;;1.25;100.00;97805.34;105928;1254;76550;-59
2023/02/21 06:20:35;;;;;;;6.50;4.20;;;;;;;1.23;100.00;97800.71;105969;1257;66588;-60
2023/02/21 06:23:03;;;;;;;8.00;4.80;;;;;;;1.26;100.00;97800.71;105807;1253;73628;-61
2023/02/21 06:25:32;;;;;;;6.10;3.70;;;;;;;1.28;100.00;97799.96;105523;1257;62364;-59
2023/02/21 06:28:00;;;;;;;7.40;4.30;;;;;;;1.29;100.00;97796.96;105670;1254;61672;-60
2023/02/21 06:30:29;;;;;;;6.80;4.80;;;;;;;1.34;100.00;97797.58;105719;1254;75634;-61
2023/02/21 06:32:59;;;;;;;7.10;4.50;;;;;;;1.38;100.00;97786.11;105649;1257;67059;-58
2023/02/21 06:35:27;;;;;;;7.20;4.20;;;;;;;1.43;100.00;97786.51;105776;1254;72653;-60
2023/02/21 06:37:56;;;;;;;6.30;4.40;;;;;;;1.48;100.00;97783.95;105799;1257;61871;-60
2023/02/21 06:40:25;;;;;;;6.60;4.70;;;;;;;1.52;100.00;97773.72;105774;1257;61614;-60
2023/02/21 06:42:53;;;;;;;6.70;5.10;;;;;;;1.54;100.00;97776.25;105504;1258;76339;-60
2023/02/21 06:45:23;;;;;;;6.20;4.30;;;;;;;1.59;100.00;97774.66;105825;1254;68716;-60
2023/02/21 06:47:54;;;;;;;6.50;4.80;;;;;;;1.69;100.00;97772.92;105545;1255;74267;-60
2023/02/21 06:50:22;;;;;;;8.30;5.40;;;;;;;1.81;100.00;97769.27;105618;1255;62464;-57
2023/02/21 06:52:51;;;;;;;7.70;5.00;;;;;;;1.91;100.00;97772.90;105693;1254;61228;-58
2023/02/21 06:55:21;;;;;;;7.80;5.00;;;;;;;2.00;100.00;97777.02;105763;1254;76170;-60
2023/02/21 06:57:52;;;;;;;7.90;4.60;;;;;;;2.08;100.00;97775.66;105581;1254;68593;-58
2023/02/21 07:00:21;;;;;;;8.60;4.90;;;;;;;2.18;100.00;97768.36;105776;1254;74157;-60
2023/02/21 07:02:49;;;;;;;10.40;5.90;;;;;;;2.29;100.00;97770.77;105609;1254;62090;-58
2023/02/21 07:05:18;;;;;;;9.00;5.20;;;;;;;2.38;100.00;97759.83;105821;1257;61141;-59
2023/02/21 07:07:48;;;;;;;7.10;4.50;;;;;;;2.46;100.00;97756.37;105717;1257;76092;-57
2023/02/21 07:10:17;;;;;;;10.60;6.40;;;;;;;2.55;100.00;97757.63;105943;1266;67801;-58
2023/02/21 07:12:46;;;;;;;9.60;5.40;;;;;;;2.62;100.00;97753.83;105719;1254;74016;-55
2023/02/21 07:15:14;;;;;;;7.10;4.70;;;;;;;2.64;100.00;97762.20;105802;1253;62699;-60
2023/02/21 07:17:44;;;;;;;7.70;4.60;;;;;;;2.66;100.00;97764.64;105876;1257;62213;-56
2023/02/21 07:20:13;;;;;;;8.20;5.30;;;;;;;2.65;100.00;97760.27;105895;1254;75220;-56
2023/02/21 07:22:44;;;;;;;9.40;5.00;;;;;;;2.59;100.00;97761.16;105672;1257;66964;-55
2023/02/21 07:25:18;;;;;;;7.30;5.20;;;;;;;2.54;100.00;97747.58;105893;1257;73339;-59
2023/02/21 07:27:47;;;;;;;7.10;5.50;;;;;;;2.52;100.00;97755.95;105741;1254;63163;-55
2023/02/21 07:30:16;;;;;;;8.40;5.10;;;;;;;2.51;100.00;97753.31;105796;1254;61281;-56
2023/02/21 07:32:45;;;;;;;8.40;5.40;;;;;;;2.54;100.00;97753.11;105805;1254;75389;-55
2023/02/21 07:35:12;;;;;;;6.90;5.00;;;;;;;2.60;100.00;97749.42;105787;1254;68571;-57
2023/02/21 07:37:41;;;;;;;8.20;5.00;;;;;;;2.70;100.00;97748.81;105805;1254;73262;-54
2023/02/21 07:40:10;;;;;;;6.80;4.60;;;;;;;2.85;100.00;97741.92;105811;1254;61646;-56
2023/02/21 07:42:42;;;;;;;7.70;4.80;;;;;;;3.03;100.00;97748.77;105738;1256;61279;-54
2023/02/21 07:45:11;;;;;;;8.50;4.60;;;;;;;3.17;100.00;97742.83;105833;1255;74686;-54
2023/02/21 07:47:40;;;;;;;8.30;4.80;;;;;;;3.26;100.00;97743.70;105790;1257;68609;-54
2023/02/21 07:50:08;;;;;;;7.40;4.70;;;;;;;3.33;100.00;97741.77;105979;1253;73462;-55
2023/02/21 07:52:37;;;;;;;6.70;4.70;;;;;;;3.40;100.00;97739.77;105813;1257;61673;-54
2023/02/21 07:55:06;;;;;;;8.00;5.10;;;;;;;3.47;100.00;97744.34;105778;1257;61252;-56
2023/02/21 07:57:35;;;;;;;8.50;5.40;;;;;;;3.54;100.00;97748.14;105678;1254;76179;-54
2023/02/21 08:00:05;;;;;;;8.40;4.70;;;;;;;3.64;100.00;97742.23;105888;1254;68636;-56
2023/02/21 08:02:45;;;;;;;8.80;4.60;;;;;;;3.79;100.00;97738.24;105725;1257;74326;-55
2023/02/21 08:05:14;;;;;;;8.90;5.40;;;;;;;3.93;100.00;97738.61;105255;1254;61876;-54
2023/02/21 08:07:43;;;;;;;10.10;5.40;;;;;;;3.97;100.00;97738.88;105613;1256;62619;-56
2023/02/21 08:10:13;;;;;;;10.20;5.00;;;;;;;3.91;100.00;97747.66;105311;1257;75198;-55
2023/02/21 08:12:44;;;;;;;7.80;4.80;;;;;;;3.83;100.00;97740.92;105815;1254;67589;-57
2023/02/21 08:15:13;;;;;;;8.20;5.00;;;;;;;3.72;100.00;97739.73;105694;1257;73074;-55
2023/02/21 08:17:42;;;;;;;7.30;4.50;;;;;;;3.60;100.00;97739.14;105794;1254;62755;-57
2023/02/21 08:20:10;;;;;;;8.00;4.90;;;;;;;3.50;100.00;97742.04;105724;1254;61873;-56
2023/02/21 08:22:39;;;;;;;6.70;4.00;;;;;;;3.43;100.00;97737.92;105841;1253;76162;-58
2023/02/21 08:25:10;;;;;;;8.30;4.70;;;;;;;3.41;100.00;97730.80;105787;1257;66974;-58
2023/02/21 08:27:39;;;;;;;7.50;4.30;;;;;;;3.49;100.00;97729.84;105786;1254;73902;-57
2023/02/21 08:30:14;;;;;;;7.10;4.00;;;;;;;3.60;100.00;97734.55;105680;1254;62963;-55
2023/02/21 08:32:47;;;;;;;6.40;3.70;;;;;;;3.71;100.00;97739.34;105566;1254;61231;-56
2023/02/21 08:35:17;;;;;;;5.90;3.40;;;;;;;3.76;100.00;97736.46;105946;1254;75276;-58
2023/02/21 08:37:46;;;;;;;5.70;3.50;;;;;;;3.76;100.00;97736.12;105736;1257;67452;-55
2023/02/21 08:40:18;;;;;;;6.20;3.50;;;;;;;3.72;100.00;97734.89;105739;1254;74218;-56
2023/02/21 08:42:50;;;;;;;7.10;2.90;;;;;;;3.69;100.00;97740.09;105811;1253;61818;-59
2023/02/21 08:45:20;;;;;;;8.20;4.20;;;;;;;3.68;100.00;97732.98;105509;1256;61309;-55
2023/02/21 08:47:49;;;;;;;6.80;3.80;;;;;;;3.74;100.00;97735.88;105772;1253;74966;-56
2023/02/21 08:50:18;;;;;;;7.90;3.60;;;;;;;3.82;100.00;97731.98;105841;1254;68637;-57
2023/02/21 08:52:47;;;;;;;6.70;3.70;;;;;;;3.86;100.00;97731.52;105885;1257;73337;-58
2023/02/21 08:55:18;;;;;;;7.90;4.10;;;;;;;3.85;100.00;97734.86;105770;1259;61997;-56
2023/02/21 08:57:47;;;;;;;6.70;3.60;;;;;;;3.87;100.00;97740.48;105723;1257;62236;-56
2023/02/21 09:00:22;;;;;;;6.60;3.70;;;;;;;3.90;100.00;97741.70;105696;1257;76116;-56
2023/02/21 09:02:50;;;;;;;6.90;3.80;;;;;;;3.97;100.00;97741.77;105878;1253;67075;-57
2023/02/21 09:05:23;;;;;;;5.70;3.30;;;;;;;4.05;100.00;97736.36;105761;1257;73238;-55
2023/02/21 09:07:54;;;;;;;6.70;3.60;;;;;;;4.15;100.00;97732.14;105687;1257;61748;-56
2023/02/21 09:10:23;;;;;;;7.50;3.60;;;;;;;4.28;100.00;97730.25;105673;1253;61509;-60
2023/02/21 09:12:52;;;;;;;8.30;3.60;;;;;;;4.36;100.00;97728.24;105800;1257;76617;-56
2023/02/21 09:15:21;;;;;;;5.80;2.80;;;;;;;4.41;100.00;97724.69;105900;1254;68550;-56
2023/02/21 09:17:50;;;;;;;6.60;3.20;;;;;;;4.46;100.00;97727.92;105834;1254;73165;-56
2023/02/21 09:20:21;;;;;;;5.90;3.20;;;;;;;4.62;100.00;97726.48;106052;1254;62518;-56
2023/02/21 09:22:50;;;;;;;;;;;;;;;4.89;100.00;97718.31;105786;1256;61453;-56
2023/02/21 09:25:23;;;;;;;6.50;3.50;;;;;;;5.14;100.00;97718.57;105802;1254;75134;-56
2023/02/21 09:27:52;;;;;;;5.00;3.10;;;;;;;5.28;100.00;97716.83;105600;1254;67884;-55
2023/02/21 09:30:24;;;;;;;5.20;2.20;;;;;;;5.34;100.00;97715.27;105950;1257;73056;-59
2023/02/21 09:32:55;;;;;;;4.90;2.40;;;;;;;5.35;100.00;97717.98;105725;1253;61440;-57
2023/02/21 09:35:23;;;;;;;4.70;2.30;;;;;;;5.32;100.00;97713.04;105814;1254;61246;-56
2023/02/21 09:37:52;;;;;;;5.30;2.20;;;;;;;5.34;100.00;97711.46;105839;1254;75231;-55
2023/02/21 09:40:42;;;;;;;4.80;2.30;;;;;;;5.42;100.00;97714.18;105883;1256;67428;-60
2023/02/21 09:43:30;;;;;;;5.20;2.30;;;;;;;5.51;100.00;97704.80;105807;1257;73139;-55
2023/02/21 09:46:08;;;;;;;4.80;1.70;;;;;;;5.62;100.00;97708.86;105526;1260;61265;-57
2023/02/21 09:48:36;;;;;;;5.50;1.80;;;;;;;5.63;100.00;97707.74;105603;1256;61317;-56
2023/02/21 09:51:06;;;;;;;5.40;1.60;;;;;;;5.57;100.00;97706.69;105864;1256;76363;-56
2023/02/21 09:53:43;;;;;;;3.70;1.80;;;;;;;5.54;100.00;97703.10;105970;1255;68652;-57
2023/02/21 09:56:11;;;;;;;5.60;1.50;;;;;;;5.53;100.00;97701.48;105672;1254;73185;-57
2023/02/21 09:58:42;;;;;;;5.30;1.50;;;;;;;5.53;100.00;97700.96;105841;1258;61715;-56
2023/02/21 10:01:34;;;;;;;4.80;1.60;;;;;;;5.56;100.00;97699.83;105698;1253;61240;-60
2023/02/21 10:04:34;;;;;;;4.60;1.70;;;;;;;5.66;100.00;97698.50;105739;1256;76207;-56
2023/02/21 10:07:17;;;;;;;5.00;1.20;;;;;;;5.68;100.00;97705.80;105792;1253;68151;-55
2023/02/21 10:09:58;;;;;;;5.70;1.30;;;;;;;5.62;100.00;97708.87;105745;1254;73403;-55
2023/02/21 10:12:29;;;;;;;3.50;1.30;;;;;;;5.58;100.00;97705.80;105773;1259;61177;-57
2023/02/21 10:15:37;;;;;;;4.70;1.40;;;;;;;5.51;100.00;97708.86;105761;1254;61144;-56
2023/02/21 10:18:12;;;;;;;5.40;1.90;;;;;;;5.41;100.00;97707.98;105541;1258;76181;-58
2023/02/21 10:20:46;;;;;;;5.40;1.40;;;;;;;5.31;100.00;97714.86;105831;1253;68656;-57
2023/02/21 10:23:16;;;;;;;4.80;1.20;;;;;;;5.22;100.00;97722.73;105651;1254;73483;-56
2023/02/21 10:25:45;;;;;;;6.10;1.50;;;;;;;5.16;100.00;97718.05;105718;1256;62896;-56
2023/02/21 10:28:19;;;;;;;3.00;0.90;;;;;;;5.09;100.00;97718.05;105482;1254;61501;-55
2023/02/21 10:30:49;;;;;;;4.00;1.30;;;;;;;5.07;100.00;97717.52;105742;1253;75100;-56
2023/02/21 10:33:17;;;;;;;6.50;1.90;;;;;;;5.12;100.00;97716.92;105660;1259;65977;-56
2023/02/21 10:35:46;;;;;;;3.80;1.10;;;;;;;5.24;100.00;97722.23;105670;1257;74151;-56
2023/02/21 10:38:18;;;;;;;6.60;1.60;;;;;;;5.38;100.00;97723.91;105648;1253;61314;-56
2023/02/21 10:41:00;;;;;;;7.00;1.50;;;;;;;5.53;100.00;97722.71;105945;1256;61167;-59
2023/02/21 10:43:37;;;;;;;2.70;0.90;;;;;;;5.68;100.00;97725.48;105824;1254;74857;-56
2023/02/21 10:46:29;;;;;;;4.30;1.10;;;;;;;5.71;100.00;97731.88;105605;1253;68386;-56
2023/02/21 10:49:09;;;;;;;5.90;1.40;;;;;;;5.66;100.00;97731.70;105839;1254;73432;-55
2023/02/21 10:51:38;;;;;;;3.40;1.00;;;;;;;5.63;100.00;97735.77;105445;1256;61241;-56
2023/02/21 10:54:21;;;;;;;4.30;1.50;;;;;;;5.64;100.00;97739.27;105834;1254;61481;-55
2023/02/21 10:56:51;;;;;;;6.40;1.20;;;;;;;5.72;100.00;97742.41;105588;1253;76621;-55
2023/02/21 10:59:25;;;;;;;4.40;1.40;;;;;;;5.79;100.00;97748.00;105720;1256;67576;-55
2023/02/21 11:01:53;;;;;;;5.90;1.20;;;;;;;5.85;100.00;97742.54;105402;1254;74306;-55
2023/02/21 11:04:26;;;;;;;4.20;1.30;;;;;;;5.86;100.00;97748.76;105806;1254;62483;-56
2023/02/21 11:06:56;;;;;;;4.40;1.00;;;;;;;5.90;100.00;97753.02;105574;1257;61256;-57
2023/02/21 11:09:26;;;;;;;5.20;1.10;;;;;;;6.01;100.00;97750.44;105980;1254;76192;-58
2023/02/21 11:12:24;;;;;;;4.40;1.20;;;;;;;6.20;100.00;97748.88;105875;1253;67427;-56
2023/02/21 11:14:56;;;;;;;3.90;0.70;;;;;;;6.33;100.00;97749.89;105657;1254;74401;-55
2023/02/21 11:17:28;;;;;;;5.20;1.30;;;;;;;6.32;100.00;97749.27;105746;1254;61295;-55
2023/02/21 11:20:04;;;;;;;4.80;0.90;;;;;;;6.24;100.00;97753.45;105722;1254;61793;-55
2023/02/21 11:22:33;;;;;;;4.50;1.00;;;;;;;6.14;100.00;97748.70;105810;1254;75515;-55
2023/02/21 11:25:31;;;;;;;4.40;1.00;;;;;;;6.05;100.00;97749.92;105759;1254;68625;-56
2023/02/21 11:28:20;;;;;;;3.90;1.00;;;;;;;5.95;100.00;97755.73;105843;1254;72884;-55
2023/02/21 11:31:14;;;;;;;5.00;1.00;;;;;;;5.86;100.00;97749.84;105462;1259;61247;-58
2023/02/21 11:34:10;;;;;;;3.70;0.90;;;;;;;5.77;100.00;97753.74;105804;1253;60377;-56
2023/02/21 11:36:43;;;;;;;4.00;1.40;;;;;;;5.71;100.00;97751.58;105625;1259;76445;-57
2023/02/21 11:39:19;;;;;;;4.20;1.30;;;;;;;5.69;100.00;97750.48;105733;1253;68563;-55
2023/02/21 11:41:51;;;;;;;3.10;1.00;;;;;;;5.73;100.00;97751.95;105927;1254;72342;-57
2023/02/21 11:44:36;;;;;;;5.70;1.20;;;;;;;5.79;100.00;97752.76;105730;1257;61363;-57
2023/02/21 11:47:38;;;;;;;5.20;1.30;;;;;;;5.89;100.00;97750.20;105667;1254;61644;-58
2023/02/21 11:50:10;;;;;;;3.70;1.30;;;;;;;5.95;100.00;97760.33;105776;1256;76171;-56
2023/02/21 11:52:54;;;;;;;4.00;1.00;;;;;;;5.95;100.00;97766.38;105688;1259;68329;-56
2023/02/21 11:55:23;;;;;;;3.60;1.10;;;;;;;5.95;100.00;97762.16;105473;1254;73980;-56
2023/02/21 11:58:16;;;;;;;3.40;0.80;;;;;;;5.93;100.00;97761.14;105714;1254;62790;-60
2023/02/21 12:01:01;;;;;;;5.40;1.20;;;;;;;5.93;100.00;97768.39;105733;1259;61247;-57
2023/02/21 12:04:02;;;;;;;6.60;1.40;;;;;;;5.94;100.00;97772.54;105517;1254;75189;-57
2023/02/21 12:06:55;;;;;;;4.30;1.10;;;;;;;5.94;100.00;97775.13;105843;1253;68390;-56
2023/02/21 12:10:02;;;;;;;6.40;1.10;;;;;;;5.95;100.00;97786.11;106069;1256;72933;-58
2023/02/21 12:12:58;;;;;;;4.10;1.00;;;;;;;5.97;100.00;97784.17;105311;1265;61225;-58
2023/02/21 12:15:54;;;;;;;4.10;1.20;;;;;;;5.94;100.00;97793.34;105831;1254;61891;-55
2023/02/21 12:18:35;;;;;;;6.70;1.80;;;;;;;5.88;100.00;97794.44;105782;1257;76401;-58
2023/02/21 12:21:06;;;;;;;6.70;2.20;;;;;;;5.79;100.00;97794.00;105702;1253;68609;-57
2023/02/21 12:24:13;;;;;;;5.50;1.30;;;;;;;5.68;100.00;97792.42;105861;1257;74148;-56
2023/02/21 12:27:00;;;;;;;5.80;1.20;;;;;;;5.54;100.00;97795.84;105245;1261;61547;-56
2023/02/21 12:29:47;;;;;;;4.60;1.20;;;;;;;5.50;100.00;97801.45;104842;1260;61199;-58
2023/02/21 12:32:47;;;;;;;5.40;1.50;;;;;;;5.52;100.00;97800.73;105585;1257;76235;-56
2023/02/21 12:36:14;;;;;;;6.60;1.40;;;;;;;5.55;100.00;97807.60;105473;1257;69246;-56
2023/02/21 12:38:55;;;;;;;3.60;1.00;;;;;;;5.60;100.00;97810.42;105218;1260;72413;-56
2023/02/21 12:41:30;;;;;;;4.60;1.10;;;;;;;5.61;100.00;97808.84;105858;1253;61253;-58
2023/02/21 12:44:16;;;;;;;5.90;1.90;;;;;;;5.58;100.00;97813.55;105688;1257;61896;-56
2023/02/21 12:46:50;;;;;;;7.00;2.00;;;;;;;5.52;100.00;97814.98;105763;1253;74376;-55
2023/02/21 12:49:18;;;;;;;6.50;1.60;;;;;;;5.44;100.00;97816.23;105789;1257;68614;-56
2023/02/21 12:52:00;;;;;;;6.10;1.80;;;;;;;5.36;100.00;97812.19;105662;1253;73726;-56
2023/02/21 12:54:31;;;;;;;6.60;1.80;;;;;;;5.28;100.00;97810.54;105745;1256;61722;-55
2023/02/21 12:57:03;;;;;;;3.90;1.20;;;;;;;5.21;100.00;97811.15;105949;1253;61789;-57
2023/02/21 12:59:48;;;;;;;7.40;1.90;;;;;;;5.14;100.00;97813.45;105645;1253;76169;-56
2023/02/21 13:02:58;;;;;;;5.70;1.60;;;;;;;5.08;100.00;97813.09;105435;1258;68700;-55
2023/02/21 13:05:35;;;;;;;4.50;1.60;;;;;;;5.01;100.00;97811.30;105375;1253;73691;-56
2023/02/21 13:08:14;;;;;;;6.00;1.60;;;;;;;4.95;100.00;97814.66;105763;1254;62969;-56
2023/02/21 13:11:07;;;;;;;7.20;1.90;;;;;;;4.90;100.00;97815.69;105539;1256;61165;-56
2023/02/21 13:13:37;;;;;;;5.80;2.00;;;;;;;4.85;100.00;97818.25;105903;1254;77447;-57
2023/02/21 13:16:09;;;;;;;7.10;2.10;;;;;;;4.80;100.00;97821.17;105664;1256;67079;-55
2023/02/21 13:18:58;;;;;;;4.90;1.20;;;;;;;4.77;100.00;97824.23;105690;1254;73995;-56
2023/02/21 13:21:52;;;;;;;6.30;1.60;;;;;;;4.74;100.00;97836.05;105700;1259;61276;-57
2023/02/21 13:24:50;;;;;;;4.50;1.50;;;;;;;4.73;100.00;97831.60;105896;1256;61141;-54
2023/02/21 13:27:44;;;;;;;5.10;1.20;;;;;;;4.71;100.00;97839.04;105636;1254;75252;-54
2023/02/21 13:30:36;;;;;;;6.70;3.50;;;;;;;4.70;100.00;97839.46;106023;1253;68401;-57
2023/02/21 13:33:05;;;;;;;6.50;2.70;;;;;;;4.68;100.00;97843.16;105816;1254;74630;-56
2023/02/21 13:35:37;;;;;;;4.80;1.50;;;;;;;4.66;100.00;97846.70;105920;1256;61284;-57
2023/02/21 13:38:07;;;;;;;3.90;0.90;;;;;;;4.64;100.00;97849.33;105601;1254;61486;-56
2023/02/21 13:40:51;;;;;;;5.30;1.30;;;;;;;4.63;100.00;97852.92;105865;1256;76295;-55
2023/02/21 13:43:25;;;;;;;4.20;1.00;;;;;;;4.63;100.00;97855.90;105658;1253;67629;-55
2023/02/21 13:45:54;;;;;;;4.00;0.80;;;;;;;4.61;100.00;97857.67;105612;1254;74273;-55
2023/02/21 13:48:27;;;;;;;3.50;0.90;;;;;;;4.61;100.00;97861.69;105914;1256;61680;-55
2023/02/21 13:51:01;;;;;;;43.80;22.20;;;;;;;4.58;100.00;97859.80;105622;1254;61270;-57
2023/02/21 13:53:32;;;;;;;6.90;1.90;;;;;;;4.56;100.00;97859.13;105768;1254;75554;-58
2023/02/21 13:56:07;;;;;;;4.20;1.40;;;;;;;4.52;100.00;97860.05;105660;1254;67617;-54
2023/02/21 13:58:40;;;;;;;4.20;0.80;;;;;;;4.53;100.00;97870.92;105831;1254;74118;-55
2023/02/21 14:01:23;;;;;;;2.30;0.70;;;;;;;4.54;100.00;97872.70;105789;1254;61260;-56
2023/02/21 14:03:56;;;;;;;3.70;0.80;;;;;;;4.53;100.00;97876.68;105693;1256;61174;-57
2023/02/21 14:06:32;;;;;;;5.30;1.10;;;;;;;4.51;100.00;97875.82;105869;1254;75209;-58
2023/02/21 14:09:09;;;;;;;6.80;2.20;;;;;;;4.51;100.00;97877.30;105367;1259;67612;-55
2023/02/21 14:11:47;;;;;;;5.30;1.60;;;;;;;4.50;100.00;97879.61;105705;1253;74294;-57
2023/02/21 14:14:29;;;;;;;23.50;12.30;;;;;;;4.49;100.00;97881.45;105950;1255;59955;-59
2023/02/21 14:17:08;;;;;;;7.90;2.00;;;;;;;4.48;100.00;97882.96;105683;1254;61789;-56
2023/02/21 14:19:39;;;;;;;5.30;1.20;;;;;;;4.48;100.00;97882.96;105676;1259;76143;-58